createdAt,value
2018-12-10T00:02:05.776Z,11.48
2018-12-10T00:04:33.227Z,12.13
2018-12-10T00:07:00.646Z,11.48
2018-12-10T00:09:28.078Z,10.20
2018-12-10T00:11:55.515Z,11.80
2018-12-10T00:14:22.958Z,13.18
2018-12-10T00:16:50.399Z,12.63
2018-12-10T00:19:17.846Z,9.68
2018-12-10T00:21:45.279Z,9.13
2018-12-10T00:24:12.817Z,12.50
2018-12-10T00:26:40.251Z,11.50
2018-12-10T00:29:07.685Z,12.47
2018-12-10T00:31:35.123Z,14.10
2018-12-10T00:34:02.558Z,12.23
2018-12-10T00:36:30.008Z,9.23
2018-12-10T00:38:57.446Z,12.03
2018-12-10T00:41:24.894Z,11.35
2018-12-10T00:43:52.341Z,8.98
2018-12-10T00:46:19.777Z,11.07
2018-12-10T00:48:47.205Z,10.93
2018-12-10T00:51:14.638Z,11.20
2018-12-10T00:53:42.077Z,9.53
2018-12-10T00:56:09.509Z,13.03
2018-12-10T00:58:37.023Z,9.70
2018-12-10T01:01:04.457Z,9.98
2018-12-10T01:03:31.981Z,8.20
2018-12-10T01:05:59.518Z,9.40
2018-12-10T01:08:26.958Z,11.88
2018-12-10T01:10:54.398Z,14.03
2018-12-10T01:13:21.826Z,17.27
2018-12-10T01:15:49.275Z,13.00
2018-12-10T01:18:16.795Z,8.43
2018-12-10T01:20:44.222Z,12.30
2018-12-10T01:23:11.663Z,18.00
2018-12-10T01:25:39.107Z,9.75
2018-12-10T01:28:06.551Z,11.88
2018-12-10T01:30:33.986Z,9.78
2018-12-10T01:33:01.422Z,14.15
2018-12-10T01:35:28.854Z,9.68
2018-12-10T01:37:56.294Z,13.67
2018-12-10T01:40:23.722Z,12.28
2018-12-10T01:42:51.157Z,9.10
2018-12-10T01:45:18.593Z,7.87
2018-12-10T01:47:46.032Z,8.05
2018-12-10T01:50:13.461Z,11.00
2018-12-10T01:52:40.898Z,8.05
2018-12-10T01:55:08.344Z,13.95
2018-12-10T01:57:36.562Z,11.00
2018-12-10T02:00:05.512Z,9.58
2018-12-10T02:02:32.962Z,10.85
2018-12-10T02:05:00.379Z,6.85
2018-12-10T02:07:27.820Z,9.80
2018-12-10T02:09:55.247Z,10.17
2018-12-10T02:12:22.680Z,14.33
2018-12-10T02:14:50.106Z,8.45
2018-12-10T02:17:17.537Z,8.73
2018-12-10T02:19:44.964Z,8.20
2018-12-10T02:22:12.398Z,6.70
2018-12-10T02:24:39.851Z,7.05
2018-12-10T02:27:07.294Z,8.20
2018-12-10T02:29:34.711Z,6.62
2018-12-10T02:32:02.154Z,10.40
2018-12-10T02:34:29.583Z,9.90
2018-12-10T02:36:57.088Z,9.75
2018-12-10T02:39:24.519Z,7.87
2018-12-10T02:41:52.027Z,8.50
2018-12-10T02:44:19.458Z,8.85
2018-12-10T02:46:46.892Z,8.43
2018-12-10T02:49:14.502Z,11.57
2018-12-10T02:51:42.061Z,9.03
2018-12-10T02:54:09.513Z,12.15
2018-12-10T02:56:37.026Z,7.87
2018-12-10T02:59:04.557Z,7.55
2018-12-10T03:01:32.642Z,7.05
2018-12-10T03:04:00.160Z,6.50
2018-12-10T03:06:27.595Z,7.55
2018-12-10T03:08:55.107Z,8.23
2018-12-10T03:11:22.548Z,7.83
2018-12-10T03:13:49.981Z,9.80
2018-12-10T03:16:17.416Z,6.12
2018-12-10T03:18:44.855Z,9.10
2018-12-10T03:21:12.292Z,6.75
2018-12-10T03:23:39.738Z,7.40
2018-12-10T03:26:07.215Z,7.92
2018-12-10T03:28:34.732Z,9.23
2018-12-10T03:31:02.183Z,7.62
2018-12-10T03:33:29.696Z,9.68
2018-12-10T03:35:57.131Z,8.25
2018-12-10T03:38:24.661Z,7.55
2018-12-10T03:40:52.178Z,7.42
2018-12-10T03:43:19.622Z,7.77
2018-12-10T03:45:47.044Z,7.67
2018-12-10T03:48:14.486Z,6.72
2018-12-10T03:50:41.907Z,9.83
2018-12-10T03:53:09.343Z,7.75
2018-12-10T03:55:36.763Z,9.75
2018-12-10T03:58:04.213Z,8.75
2018-12-10T04:00:31.734Z,10.80
2018-12-10T04:02:59.178Z,8.55
2018-12-10T04:05:26.635Z,10.13
2018-12-10T04:07:54.055Z,8.98
2018-12-10T04:10:21.502Z,8.67
2018-12-10T04:12:49.037Z,10.70
2018-12-10T04:15:16.476Z,11.13
2018-12-10T04:17:43.907Z,12.85
2018-12-10T04:20:11.351Z,12.03
2018-12-10T04:22:38.786Z,14.40
2018-12-10T04:25:06.223Z,11.00
2018-12-10T04:27:33.671Z,12.60
2018-12-10T04:30:01.106Z,13.95
2018-12-10T04:32:28.554Z,12.45
2018-12-10T04:34:55.994Z,11.80
2018-12-10T04:37:23.443Z,13.25
2018-12-10T04:39:50.991Z,12.83
2018-12-10T04:42:18.414Z,13.90
2018-12-10T04:44:45.855Z,14.05
2018-12-10T04:47:13.298Z,10.90
2018-12-10T04:49:40.731Z,13.60
2018-12-10T04:52:08.178Z,15.50
2018-12-10T04:54:35.614Z,17.40
2018-12-10T04:57:03.050Z,14.80
2018-12-10T04:59:30.493Z,10.13
2018-12-10T05:01:57.938Z,14.20
2018-12-10T05:04:25.379Z,18.30
2018-12-10T05:06:52.806Z,8.63
2018-12-10T05:09:20.262Z,12.80
2018-12-10T05:11:47.752Z,13.37
2018-12-10T05:14:15.230Z,11.57
2018-12-10T05:16:42.671Z,14.55
2018-12-10T05:19:10.106Z,11.88
2018-12-10T05:21:37.548Z,13.13
2018-12-10T05:24:05.757Z,10.65
2018-12-10T05:26:33.193Z,14.40
2018-12-10T05:29:00.714Z,11.48
2018-12-10T05:31:28.165Z,11.80
2018-12-10T05:33:55.601Z,11.50
2018-12-10T05:36:23.046Z,15.83
2018-12-10T05:38:50.470Z,10.82
2018-12-10T05:41:17.910Z,10.20
2018-12-10T05:43:45.342Z,11.80
2018-12-10T05:46:12.782Z,13.22
2018-12-10T05:48:40.214Z,13.03
2018-12-10T05:51:07.650Z,10.53
2018-12-10T05:53:35.091Z,11.10
2018-12-10T05:56:02.538Z,11.55
2018-12-10T05:58:29.982Z,11.18
2018-12-10T06:00:57.422Z,10.85
2018-12-10T06:03:24.938Z,11.23
2018-12-10T06:05:52.402Z,12.60
2018-12-10T06:08:19.850Z,11.67
2018-12-10T06:10:47.370Z,11.20
2018-12-10T06:13:14.802Z,11.60
2018-12-10T06:15:42.253Z,8.95
2018-12-10T06:18:09.691Z,13.85
2018-12-10T06:20:37.128Z,12.53
2018-12-10T06:23:04.575Z,11.30
2018-12-10T06:25:32.100Z,12.45
2018-12-10T06:27:59.526Z,12.37
2018-12-10T06:30:26.972Z,12.15
2018-12-10T06:32:54.405Z,12.43
2018-12-10T06:35:21.843Z,11.53
2018-12-10T06:37:49.310Z,10.08
2018-12-10T06:40:16.747Z,11.97
2018-12-10T06:42:44.196Z,10.85
2018-12-10T06:45:11.631Z,9.25
2018-12-10T06:47:39.082Z,11.10
2018-12-10T06:50:06.818Z,12.00
2018-12-10T06:52:34.266Z,10.43
2018-12-10T06:55:01.807Z,9.15
2018-12-10T06:57:29.255Z,10.72
2018-12-10T06:59:56.701Z,16.20
2018-12-10T07:02:24.180Z,11.87
2018-12-10T07:04:51.621Z,14.53
2018-12-10T07:07:19.139Z,13.57
2018-12-10T07:09:46.558Z,12.90
2018-12-10T07:12:14.126Z,16.73
2018-12-10T07:14:41.638Z,12.23
2018-12-10T07:17:09.078Z,15.80
2018-12-10T07:19:36.526Z,19.20
2018-12-10T07:22:03.971Z,15.50
2018-12-10T07:24:31.417Z,10.10
2018-12-10T07:26:58.846Z,14.65
2018-12-10T07:29:26.283Z,14.78
2018-12-10T07:31:53.710Z,17.15
2018-12-10T07:34:21.173Z,16.50
2018-12-10T07:36:48.612Z,9.25
2018-12-10T07:39:16.054Z,10.82
2018-12-10T07:41:43.507Z,11.45
2018-12-10T07:44:10.950Z,12.90
2018-12-10T07:46:38.398Z,13.77
2018-12-10T07:51:39.813Z,11.55
2018-12-10T07:54:07.330Z,12.70
2018-12-10T07:56:34.770Z,14.45
2018-12-10T07:59:02.226Z,10.28
2018-12-10T08:01:29.671Z,9.85
2018-12-10T08:03:57.198Z,11.43
2018-12-10T08:06:24.731Z,10.95
2018-12-10T08:08:52.155Z,12.10
2018-12-10T08:11:19.610Z,13.88
2018-12-10T08:13:47.061Z,13.72
2018-12-10T08:16:14.485Z,12.90
2018-12-10T08:18:41.907Z,10.88
2018-12-10T08:21:09.346Z,15.48
2018-12-10T08:23:36.815Z,10.28
2018-12-10T08:26:04.643Z,12.82
2018-12-10T08:28:32.094Z,15.20
2018-12-10T08:30:59.563Z,15.18
2018-12-10T08:33:26.998Z,13.62
2018-12-10T08:35:54.454Z,14.43
2018-12-10T08:38:21.870Z,15.15
2018-12-10T08:40:49.332Z,11.12
2018-12-10T08:43:16.781Z,12.47
2018-12-10T08:45:44.346Z,13.50
2018-12-10T08:48:11.823Z,9.70
2018-12-10T08:50:39.308Z,14.93
2018-12-10T08:53:06.762Z,15.45
2018-12-10T08:55:34.223Z,10.98
2018-12-10T08:58:01.654Z,9.15
2018-12-10T09:00:29.089Z,9.40
2018-12-10T09:02:56.535Z,10.35
2018-12-10T09:05:23.986Z,11.60
2018-12-10T09:07:51.427Z,9.25
2018-12-10T09:10:18.978Z,10.98
2018-12-10T09:12:47.551Z,6.95
2018-12-10T09:15:15.066Z,9.78
2018-12-10T09:17:42.506Z,5.70
2018-12-10T09:20:09.951Z,6.70
2018-12-10T09:22:37.389Z,8.95
2018-12-10T09:25:05.248Z,9.35
2018-12-10T09:27:32.671Z,9.80
2018-12-10T09:30:00.094Z,9.40
2018-12-10T09:32:27.525Z,9.20
2018-12-10T09:37:45.678Z,9.93
2018-12-10T09:40:13.115Z,9.95
2018-12-10T09:42:40.550Z,12.47
2018-12-10T09:45:08.061Z,9.68
2018-12-10T09:47:35.487Z,9.65
2018-12-10T09:50:04.122Z,9.85
2018-12-10T09:52:31.566Z,9.18
2018-12-10T09:54:59.069Z,10.72
2018-12-10T09:57:26.628Z,6.42
2018-12-10T09:59:54.046Z,10.72
2018-12-10T10:02:21.532Z,7.67
2018-12-10T10:04:48.968Z,10.58
2018-12-10T10:07:16.402Z,9.03
2018-12-10T10:09:43.838Z,11.07
2018-12-10T10:12:11.271Z,10.43
2018-12-10T10:14:38.728Z,11.63
2018-12-10T10:17:06.167Z,11.93
2018-12-10T10:19:33.610Z,13.35
2018-12-10T10:22:01.129Z,14.45
2018-12-10T10:24:28.617Z,13.35
2018-12-10T10:26:56.030Z,11.40
2018-12-10T10:29:23.470Z,13.18
2018-12-10T10:31:50.907Z,12.70
2018-12-10T10:34:18.356Z,16.00
2018-12-10T10:36:45.795Z,12.73
2018-12-10T10:39:13.326Z,14.03
2018-12-10T10:41:40.762Z,12.40
2018-12-10T10:44:08.209Z,11.00
2018-12-10T10:46:35.630Z,10.05
2018-12-10T10:49:03.079Z,8.33
2018-12-10T10:51:30.505Z,5.92
2018-12-10T10:53:57.962Z,8.40
2018-12-10T10:56:25.402Z,7.75
2018-12-10T10:58:52.838Z,7.20
2018-12-10T11:01:25.626Z,8.43
2018-12-10T11:03:53.068Z,7.25
2018-12-10T11:06:20.510Z,8.08
2018-12-10T11:08:48.084Z,9.35
2018-12-10T11:11:15.621Z,5.25
2018-12-10T11:13:43.071Z,8.95
2018-12-10T11:16:10.518Z,7.22
2018-12-10T11:18:37.977Z,9.30
2018-12-10T11:21:05.410Z,5.17
2018-12-10T11:23:32.867Z,9.13
2018-12-10T11:26:00.398Z,9.23
2018-12-10T11:28:27.848Z,9.10
2018-12-10T11:30:55.279Z,11.57
2018-12-10T11:33:22.722Z,9.68
2018-12-10T11:35:50.161Z,8.23
2018-12-10T11:38:17.594Z,12.80
2018-12-10T11:40:45.038Z,10.72
2018-12-10T11:43:12.494Z,6.72
2018-12-10T11:45:39.938Z,4.83
2018-12-10T11:48:07.429Z,9.70
2018-12-10T11:50:34.875Z,7.08
2018-12-10T11:53:02.328Z,7.92
2018-12-10T11:55:29.762Z,7.62
2018-12-10T11:57:57.203Z,7.75
2018-12-10T12:00:24.638Z,8.10
2018-12-10T12:02:52.099Z,8.63
2018-12-10T12:05:19.549Z,7.30
2018-12-10T12:07:47.097Z,7.80
2018-12-10T12:10:14.626Z,10.23
2018-12-10T12:12:42.070Z,9.03
2018-12-10T12:15:09.511Z,6.90
2018-12-10T12:17:37.275Z,8.53
2018-12-10T12:20:07.730Z,7.67
2018-12-10T12:22:35.174Z,6.40
2018-12-10T12:25:02.622Z,5.80
2018-12-10T12:27:30.044Z,5.78
2018-12-10T12:29:57.497Z,8.53
2018-12-10T12:32:24.939Z,8.85
2018-12-10T12:34:52.386Z,5.15
2018-12-10T12:37:19.807Z,9.00
2018-12-10T12:39:47.250Z,6.72
2018-12-10T12:42:14.698Z,4.67
2018-12-10T12:44:42.134Z,5.33
2018-12-10T12:47:09.659Z,6.15
2018-12-10T12:49:37.106Z,5.35
2018-12-10T12:52:04.554Z,4.10
2018-12-10T12:54:31.988Z,8.90
2018-12-10T12:56:59.427Z,4.30
2018-12-10T12:59:26.872Z,5.40
2018-12-10T13:01:54.290Z,4.97
2018-12-10T13:04:21.706Z,6.35
2018-12-10T13:06:49.149Z,8.57
2018-12-10T13:09:21.713Z,5.87
2018-12-10T13:11:45.985Z,6.45
2018-12-10T13:14:13.406Z,5.33
2018-12-10T13:16:49.224Z,4.55
2018-12-10T13:19:10.295Z,6.50
2018-12-10T13:21:37.738Z,6.05
2018-12-10T13:24:05.919Z,6.05
2018-12-10T13:26:33.351Z,7.95
2018-12-10T13:29:00.811Z,5.03
2018-12-10T13:31:28.315Z,6.10
2018-12-10T13:33:55.776Z,7.35
2018-12-10T13:36:23.248Z,5.67
2018-12-10T13:38:50.685Z,7.10
2018-12-10T13:41:18.131Z,8.58
2018-12-10T13:43:45.658Z,5.25
2018-12-10T13:46:13.102Z,8.60
2018-12-10T13:48:40.626Z,6.53
2018-12-10T13:51:08.054Z,5.28
2018-12-10T13:53:35.478Z,4.85
2018-12-10T13:56:02.908Z,7.43
2018-12-10T13:58:30.344Z,9.87
2018-12-10T14:00:57.774Z,8.60
2018-12-10T14:03:25.223Z,9.73
2018-12-10T14:05:52.730Z,9.10
2018-12-10T14:08:20.162Z,4.87
2018-12-10T14:10:47.591Z,7.33
2018-12-10T14:13:15.034Z,3.90
2018-12-10T14:15:42.482Z,5.85
2018-12-10T14:18:09.927Z,6.10
2018-12-10T14:20:37.368Z,3.95
2018-12-10T14:23:04.815Z,4.67
2018-12-10T14:25:32.257Z,4.35
2018-12-10T14:27:59.723Z,5.78
2018-12-10T14:30:27.174Z,4.75
2018-12-10T14:32:54.618Z,4.12
2018-12-10T14:35:22.045Z,4.65
2018-12-10T14:37:49.489Z,3.97
2018-12-10T14:40:16.923Z,4.80
2018-12-10T14:42:51.128Z,3.75
2018-12-10T14:45:18.767Z,5.47
2018-12-10T14:47:49.515Z,3.62
2018-12-10T14:50:17.009Z,4.00
2018-12-10T14:52:44.446Z,3.70
2018-12-10T14:55:12.385Z,5.50
2018-12-10T14:57:39.826Z,5.42
2018-12-10T15:00:07.986Z,5.97
2018-12-10T15:02:35.434Z,6.57
2018-12-10T15:05:04.321Z,4.57
2018-12-10T15:07:31.791Z,5.10
2018-12-10T15:09:59.242Z,3.55
2018-12-10T15:12:26.693Z,6.00
2018-12-10T15:14:54.141Z,5.70
2018-12-10T15:17:21.590Z,4.20
2018-12-10T15:19:49.050Z,3.40
2018-12-10T15:22:16.490Z,3.60
2018-12-10T15:24:43.939Z,4.47
2018-12-10T15:27:11.366Z,4.93
2018-12-10T15:29:38.858Z,6.07
2018-12-10T15:32:06.303Z,4.53
2018-12-10T15:34:33.738Z,5.00
2018-12-10T15:37:01.166Z,6.35
2018-12-10T15:39:28.607Z,4.30
2018-12-10T15:41:56.042Z,6.05
2018-12-10T15:44:23.483Z,5.87
2018-12-10T15:46:50.935Z,7.17
2018-12-10T15:49:18.372Z,9.78
2018-12-10T15:51:45.795Z,6.95
2018-12-10T15:54:13.227Z,7.67
2018-12-10T15:56:42.075Z,10.13
2018-12-10T15:59:09.506Z,10.95
2018-12-10T16:01:36.943Z,12.80
2018-12-10T16:04:04.378Z,10.18
2018-12-10T16:06:31.853Z,8.05
2018-12-10T16:08:59.301Z,6.55
2018-12-10T16:11:26.738Z,11.05
2018-12-10T16:13:54.207Z,12.30
2018-12-10T16:16:21.671Z,11.55
2018-12-10T16:18:49.110Z,11.45
2018-12-10T16:21:16.540Z,8.93
2018-12-10T16:23:44.014Z,10.77
2018-12-10T16:26:11.505Z,13.70
2018-12-10T16:28:38.998Z,8.17
2018-12-10T16:31:06.442Z,8.53
2018-12-10T16:33:33.889Z,6.30
2018-12-10T16:36:01.322Z,9.30
2018-12-10T16:38:28.775Z,11.93
2018-12-10T16:40:56.211Z,8.88
2018-12-10T16:43:23.655Z,9.33
2018-12-10T16:45:51.093Z,7.17
2018-12-10T16:48:18.543Z,8.85
2018-12-10T16:50:45.988Z,9.23
2018-12-10T16:53:13.715Z,11.20
2018-12-10T16:55:41.143Z,8.88
2018-12-10T16:58:08.572Z,9.05
2018-12-10T17:00:36.019Z,4.87
2018-12-10T17:03:03.872Z,9.03
2018-12-10T17:05:31.306Z,10.55
2018-12-10T17:07:58.741Z,7.10
2018-12-10T17:10:26.197Z,10.05
2018-12-10T17:12:53.634Z,10.00
2018-12-10T17:15:21.080Z,9.70
2018-12-10T17:17:48.521Z,8.00
2018-12-10T17:20:15.970Z,9.68
2018-12-10T17:22:43.464Z,11.30
2018-12-10T17:25:10.934Z,9.95
2018-12-10T17:27:38.374Z,14.00
2018-12-10T17:30:06.732Z,13.30
2018-12-10T17:32:34.170Z,8.58
2018-12-10T17:35:01.611Z,8.53
2018-12-10T17:37:29.055Z,11.38
2018-12-10T17:39:57.235Z,10.48
2018-12-10T17:42:24.690Z,7.03
2018-12-10T17:44:52.219Z,12.15
2018-12-10T17:47:20.147Z,8.60
2018-12-10T17:49:47.926Z,11.20
2018-12-10T17:52:15.398Z,12.35
2018-12-10T17:54:42.841Z,14.05
2018-12-10T17:57:10.280Z,16.07
2018-12-10T17:59:37.706Z,12.10
2018-12-10T18:02:05.153Z,13.98
2018-12-10T18:04:32.592Z,14.23
2018-12-10T18:07:00.054Z,14.33
2018-12-10T18:09:27.519Z,12.18
2018-12-10T18:11:54.991Z,13.65
2018-12-10T18:14:22.465Z,12.88
2018-12-10T18:16:49.921Z,14.20
2018-12-10T18:19:17.760Z,13.20
2018-12-10T18:21:45.223Z,15.85
2018-12-10T18:24:12.656Z,20.30
2018-12-10T18:26:40.101Z,14.87
2018-12-10T18:29:07.576Z,13.23
2018-12-10T18:31:35.015Z,15.37
2018-12-10T18:34:02.672Z,14.98
2018-12-10T18:36:30.126Z,17.83
2018-12-10T18:38:57.558Z,10.85
2018-12-10T18:41:25.074Z,8.95
2018-12-10T18:43:52.509Z,5.37
2018-12-10T18:46:19.947Z,8.13
2018-12-10T18:48:47.373Z,8.50
2018-12-10T18:51:14.839Z,10.28
2018-12-10T18:53:42.284Z,9.15
2018-12-10T18:56:09.864Z,7.50
2018-12-10T18:58:37.582Z,11.25
2018-12-10T19:01:05.013Z,13.38
2018-12-10T19:03:32.530Z,9.68
2018-12-10T19:05:59.963Z,16.20
2018-12-10T19:08:27.546Z,10.95
2018-12-10T19:10:54.997Z,15.88
2018-12-10T19:13:22.465Z,15.03
2018-12-10T19:15:50.028Z,13.35
2018-12-10T19:18:17.465Z,14.33
2018-12-10T19:20:44.924Z,13.13
2018-12-10T19:23:12.574Z,13.68
2018-12-10T19:25:40.044Z,14.28
2018-12-10T19:28:07.489Z,15.43
2018-12-10T19:30:35.073Z,14.10
2018-12-10T19:33:02.559Z,15.00
2018-12-10T19:35:29.999Z,12.13
2018-12-10T19:37:57.442Z,13.72
2018-12-10T19:40:24.897Z,10.75
2018-12-10T19:42:52.431Z,11.05
2018-12-10T19:45:19.877Z,14.75
2018-12-10T19:47:47.416Z,16.12
2018-12-10T19:50:14.869Z,13.93
2018-12-10T19:52:42.311Z,15.35
2018-12-10T19:55:09.768Z,12.95
2018-12-10T19:57:37.223Z,15.15
2018-12-10T20:00:05.882Z,13.00
2018-12-10T20:02:33.379Z,15.00
2018-12-10T20:05:00.906Z,15.40
2018-12-10T20:07:28.372Z,14.25
2018-12-10T20:09:55.805Z,15.35
2018-12-10T20:12:23.247Z,16.53
2018-12-10T20:14:51.234Z,16.25
2018-12-10T20:17:18.671Z,14.23
2018-12-10T20:19:47.367Z,14.80
2018-12-10T20:22:14.814Z,15.32
2018-12-10T20:24:42.262Z,11.90
2018-12-10T20:27:09.720Z,14.47
2018-12-10T20:29:37.179Z,12.80
2018-12-10T20:32:04.643Z,14.43
2018-12-10T20:34:32.237Z,11.90
2018-12-10T20:36:59.663Z,13.62
2018-12-10T20:39:27.179Z,15.72
2018-12-10T20:41:54.602Z,10.63
2018-12-10T20:44:22.046Z,11.18
2018-12-10T20:46:50.114Z,12.25
2018-12-10T20:49:17.557Z,19.05
2018-12-10T20:51:44.998Z,15.93
2018-12-10T20:54:12.434Z,13.65
2018-12-10T20:56:39.890Z,12.25
2018-12-10T20:59:07.312Z,13.33
2018-12-10T21:01:34.737Z,15.15
2018-12-10T21:04:02.187Z,15.98
2018-12-10T21:06:34.876Z,13.22
2018-12-10T21:09:03.196Z,20.17
2018-12-10T21:11:30.675Z,15.10
2018-12-10T21:13:58.120Z,19.23
2018-12-10T21:16:25.574Z,19.85
2018-12-10T21:18:53.009Z,18.65
2018-12-10T21:21:20.461Z,15.90
2018-12-10T21:23:47.930Z,16.35
2018-12-10T21:26:15.358Z,17.77
2018-12-10T21:28:42.814Z,20.43
2018-12-10T21:31:10.250Z,18.60
2018-12-10T21:33:37.679Z,19.60
2018-12-10T21:36:05.110Z,17.48
2018-12-10T21:38:32.591Z,20.97
2018-12-10T21:41:00.035Z,16.90
2018-12-10T21:43:27.471Z,18.48
2018-12-10T21:45:54.918Z,15.30
2018-12-10T21:48:22.343Z,22.50
2018-12-10T21:50:49.797Z,18.32
2018-12-10T21:53:17.234Z,14.60
2018-12-10T21:55:44.671Z,19.90
2018-12-10T21:58:12.105Z,22.27
2018-12-10T22:00:39.541Z,16.00
2018-12-10T22:03:06.966Z,16.97
2018-12-10T22:05:34.411Z,19.52
2018-12-10T22:08:01.850Z,21.37
2018-12-10T22:10:29.282Z,14.95
2018-12-10T22:12:56.751Z,17.23
2018-12-10T22:15:24.187Z,18.45
2018-12-10T22:17:51.610Z,13.62
2018-12-10T22:20:19.047Z,14.80
2018-12-10T22:22:46.469Z,14.73
2018-12-10T22:25:13.910Z,20.72
2018-12-10T22:27:41.332Z,14.85
2018-12-10T22:30:08.766Z,18.50
2018-12-10T22:32:36.218Z,18.80
2018-12-10T22:35:04.174Z,17.60
2018-12-10T22:37:31.611Z,15.80
2018-12-10T22:39:59.049Z,17.50
2018-12-10T22:42:26.484Z,19.67
2018-12-10T22:44:53.898Z,17.32
2018-12-10T22:47:21.335Z,16.95
2018-12-10T22:49:48.770Z,19.05
2018-12-10T22:52:16.210Z,18.52
2018-12-10T22:54:43.641Z,17.83
2018-12-10T22:57:11.078Z,18.45
2018-12-10T22:59:38.515Z,17.90
2018-12-10T23:02:05.964Z,17.75
2018-12-10T23:04:33.381Z,17.40
2018-12-10T23:07:00.818Z,17.62
2018-12-10T23:09:28.262Z,18.12
2018-12-10T23:11:55.719Z,22.55
2018-12-10T23:14:23.146Z,18.17
2018-12-10T23:16:50.586Z,15.33
2018-12-10T23:19:18.010Z,20.27
2018-12-10T23:21:45.442Z,15.25
2018-12-10T23:24:12.866Z,19.65
2018-12-10T23:26:40.304Z,17.90
2018-12-10T23:29:07.733Z,17.00
2018-12-10T23:31:35.183Z,22.22
2018-12-10T23:34:02.623Z,15.95
2018-12-10T23:36:30.077Z,18.07
2018-12-10T23:38:57.517Z,18.95
2018-12-10T23:41:24.962Z,15.37
2018-12-10T23:43:52.389Z,19.87
2018-12-10T23:46:19.838Z,22.50
2018-12-10T23:48:47.291Z,19.27
2018-12-10T23:51:14.722Z,18.90
2018-12-10T23:53:42.147Z,17.40
2018-12-10T23:56:09.597Z,21.97
2018-12-10T23:58:37.051Z,18.12
